Time;durP1;ratioP1;P1;durP2;ratioP2;P2;SDS_P1;SDS_P2;PMS_P1;PMS_P2;Temp;Humidity;BMP_temperature;BMP_pressure;BME280_temperature;BME280_humidity;BME280_pressure;Samples;Min_cycle;Max_cycle;Signal;HPM_P1;HPM_P2
2023/04/29 00:00:54;;;;;;;10.75;3.20;;;;;;;15.93;100.00;100406.34;6068221;23;20011;-87
2023/04/29 00:03:20;;;;;;;4.50;3.08;;;;;;;16.03;100.00;100396.13;6067831;23;20010;-90
2023/04/29 00:05:46;;;;;;;6.30;2.95;;;;;;;16.27;100.00;100401.94;6192854;23;20011;-89
2023/04/29 00:08:12;;;;;;;8.05;2.90;;;;;;;16.25;100.00;100394.13;6067643;23;20045;-88
2023/04/29 00:10:38;;;;;;;7.70;2.75;;;;;;;16.22;100.00;100386.50;6192576;23;20011;-89
2023/04/29 00:13:04;;;;;;;7.38;3.30;;;;;;;16.26;100.00;100384.25;6191974;23;20419;-88
2023/04/29 00:15:30;;;;;;;7.90;3.20;;;;;;;16.10;100.00;100374.75;6068182;23;20007;-89
2023/04/29 00:17:55;;;;;;;9.18;2.83;;;;;;;16.33;100.00;100385.09;6143439;23;20003;-90
2023/04/29 00:20:21;;;;;;;10.82;3.47;;;;;;;16.28;100.00;100377.66;6069096;23;20014;-88
2023/04/29 00:22:48;;;;;;;8.60;3.40;;;;;;;16.02;100.00;100378.41;6194679;23;20107;-88
2023/04/29 00:25:14;;;;;;;8.93;3.15;;;;;;;16.09;100.00;100382.97;6194890;23;20323;-88
2023/04/29 00:27:39;;;;;;;6.18;2.90;;;;;;;16.18;100.00;100387.09;6067643;23;20011;-88
2023/04/29 00:30:08;;;;;;;10.10;3.20;;;;;;;16.15;100.00;100396.34;6067571;23;20057;-86
2023/04/29 00:32:34;;;;;;;6.72;3.42;;;;;;;15.91;100.00;100387.00;6192281;23;20022;-90
2023/04/29 00:35:00;;;;;;;10.07;3.58;;;;;;;15.81;100.00;100386.53;6192451;23;20015;-88
2023/04/29 00:37:26;;;;;;;9.07;3.38;;;;;;;15.79;100.00;100383.25;6068587;23;20046;-89
2023/04/29 00:39:51;;;;;;;6.07;3.10;;;;;;;15.64;100.00;100389.78;6169154;23;20022;-90
2023/04/29 00:42:17;;;;;;;8.25;3.40;;;;;;;15.56;100.00;100382.75;6193366;23;20370;-90
2023/04/29 00:44:42;;;;;;;7.30;3.53;;;;;;;15.64;100.00;100379.09;6169460;23;20069;-89
2023/04/29 00:47:10;;;;;;;9.10;3.10;;;;;;;15.83;100.00;100373.81;6080919;23;20010;-91
2023/04/29 00:49:39;;;;;;;13.63;3.95;;;;;;;15.79;100.00;100355.72;6213135;23;20011;-90
2023/04/29 00:52:07;;;;;;;10.48;3.95;;;;;;;15.52;100.00;100357.44;6085962;23;20011;-89
2023/04/29 00:54:34;;;;;;;10.60;4.13;;;;;;;15.39;100.00;100355.50;6161228;23;20038;-88
2023/04/29 00:57:01;;;;;;;12.82;3.83;;;;;;;15.29;100.00;100336.34;6086331;23;20011;-89
2023/04/29 00:59:31;;;;;;;12.65;3.95;;;;;;;15.08;100.00;100343.63;6213419;23;20014;-87
2023/04/29 01:02:02;;;;;;;8.52;4.13;;;;;;;14.80;100.00;100343.59;6211996;23;20011;-88
2023/04/29 01:04:29;;;;;;;9.63;3.35;;;;;;;14.74;100.00;100345.22;6073833;23;20015;-93
2023/04/29 01:07:08;;;;;;;9.40;3.80;;;;;;;14.90;100.00;100354.78;6169116;23;20019;-91
2023/04/29 01:10:19;;;;;;;10.52;4.15;;;;;;;14.92;100.00;100358.88;6168476;23;20101;-90
2023/04/29 01:13:08;;;;;;;14.00;4.60;;;;;;;14.97;100.00;100350.31;6168508;23;20019;-89
2023/04/29 01:16:04;;;;;;;8.60;3.90;;;;;;;15.08;100.00;100343.63;6183482;23;20419;-88
2023/04/29 01:18:35;;;;;;;8.48;4.43;;;;;;;15.06;100.00;100332.28;6146713;23;20014;-88
2023/04/29 01:21:01;;;;;;;11.38;4.63;;;;;;;14.92;100.00;100342.88;6088707;23;20067;-89
2023/04/29 01:23:30;;;;;;;13.95;4.57;;;;;;;14.74;100.00;100334.53;6088983;23;20023;-86
2023/04/29 01:25:57;;;;;;;7.82;4.03;;;;;;;14.47;100.00;100332.66;6088871;23;20034;-89
2023/04/29 01:28:53;;;;;;;9.65;4.45;;;;;;;14.47;100.00;100344.16;6069253;23;20057;-89
2023/04/29 01:31:40;;;;;;;10.75;4.40;;;;;;;14.52;100.00;100351.56;6189567;23;20011;-88
2023/04/29 01:34:48;;;;;;;9.07;4.60;;;;;;;14.51;100.00;100333.94;6206308;23;20011;-91
2023/04/29 01:37:26;;;;;;;9.45;5.15;;;;;;;14.34;100.00;100338.72;6100326;23;20029;-87
2023/04/29 01:40:13;;;;;;;7.85;4.05;;;;;;;14.38;100.00;100345.28;6126426;23;20021;-88
2023/04/29 01:42:59;;;;;;;10.15;4.75;;;;;;;14.42;100.00;100338.56;6126344;23;20020;-89
2023/04/29 01:45:27;;;;;;;9.35;4.50;;;;;;;14.65;100.00;100341.00;6101514;23;20014;-88
2023/04/29 01:47:55;;;;;;;10.90;5.28;;;;;;;14.76;100.00;100332.50;6122100;23;20011;-89
2023/04/29 01:50:21;;;;;;;8.10;4.82;;;;;;;14.55;100.00;100329.84;6191114;23;20339;-89
2023/04/29 01:52:47;;;;;;;9.07;4.30;;;;;;;14.56;100.00;100328.84;6167655;23;20343;-89
2023/04/29 01:55:17;;;;;;;14.23;4.00;;;;;;;14.66;100.00;100332.00;6190129;23;20086;-90
2023/04/29 01:57:53;;;;;;;9.93;4.40;;;;;;;14.57;100.00;100327.84;6165684;23;20390;-89
2023/04/29 02:00:37;;;;;;;11.93;4.55;;;;;;;14.73;100.00;100324.88;6065596;23;20030;-88
2023/04/29 02:03:04;;;;;;;7.10;4.00;;;;;;;14.44;100.00;100317.06;6190730;23;20058;-89
2023/04/29 02:05:36;;;;;;;13.88;4.60;;;;;;;14.34;100.00;100321.88;6190959;23;20046;-89
2023/04/29 02:08:02;;;;;;;13.95;5.05;;;;;;;14.20;100.00;100314.75;6164913;23;20057;-87
2023/04/29 02:10:29;;;;;;;9.10;4.45;;;;;;;14.28;100.00;100298.63;6191111;23;20026;-89
2023/04/29 02:13:10;;;;;;;8.95;3.90;;;;;;;14.19;100.00;100297.09;6191999;23;20010;-88
2023/04/29 02:15:36;;;;;;;13.13;3.80;;;;;;;14.35;100.00;100302.22;6190714;23;20015;-89
2023/04/29 02:18:02;;;;;;;8.93;3.78;;;;;;;14.16;100.00;100302.81;6192971;23;20379;-90
2023/04/29 02:20:27;;;;;;;8.25;3.60;;;;;;;13.98;100.00;100300.59;6170819;23;20046;-89
2023/04/29 02:22:54;;;;;;;9.50;4.45;;;;;;;13.98;100.00;100312.09;6171000;23;20046;-90
2023/04/29 02:25:20;;;;;;;8.68;3.92;;;;;;;14.10;100.00;100319.56;6167457;23;20034;-90
2023/04/29 02:27:45;;;;;;;8.82;3.97;;;;;;;13.92;100.00;100327.97;6068630;23;20030;-89
2023/04/29 02:30:11;;;;;;;7.70;4.03;;;;;;;13.81;100.00;100331.97;6214591;23;19995;-88
2023/04/29 02:32:38;;;;;;;9.55;4.38;;;;;;;13.63;100.00;100326.22;6090446;23;20021;-90
2023/04/29 02:35:06;;;;;;;14.48;4.47;;;;;;;13.62;100.00;100337.88;6191837;23;20023;-88
2023/04/29 02:37:31;;;;;;;7.65;3.88;;;;;;;13.86;100.00;100342.88;6217140;23;20022;-90
2023/04/29 02:39:57;;;;;;;9.40;4.03;;;;;;;14.05;100.00;100343.28;6215867;23;20147;-90
2023/04/29 02:42:22;;;;;;;14.63;4.05;;;;;;;14.26;100.00;100340.63;6217074;23;20041;-89
2023/04/29 02:44:48;;;;;;;6.97;4.00;;;;;;;14.11;100.00;100337.22;6091365;23;20003;-89
2023/04/29 02:47:14;;;;;;;16.38;4.07;;;;;;;14.02;100.00;100338.34;6216889;23;20006;-89
2023/04/29 02:49:39;;;;;;;13.85;4.45;;;;;;;13.96;100.00;100330.06;6191602;23;20042;-90
2023/04/29 02:52:24;;;;;;;12.30;4.65;;;;;;;13.84;100.00;100328.94;6191973;23;20070;-90
2023/04/29 02:54:49;;;;;;;10.55;4.90;;;;;;;13.96;100.00;100327.41;6217003;23;20014;-87
2023/04/29 02:57:15;;;;;;;10.73;4.22;;;;;;;14.18;100.00;100306.13;6091648;23;20007;-90
2023/04/29 02:59:40;;;;;;;11.48;4.60;;;;;;;14.04;100.00;100302.50;6091447;23;20007;-90
2023/04/29 03:06:32;;;;;;;11.18;4.07;;;;;;;14.06;100.00;100313.78;6090894;23;20069;-90
2023/04/29 03:08:58;;;;;;;7.38;4.25;;;;;;;13.79;100.00;100312.66;6217439;23;20007;-89
2023/04/29 03:14:48;;;;;;;10.10;5.30;;;;;;;13.53;100.00;100296.38;6192209;23;20011;-90
2023/04/29 03:17:15;;;;;;;12.43;5.05;;;;;;;13.52;100.00;100297.41;6091313;23;20017;-90
2023/04/29 03:19:41;;;;;;;18.85;6.40;;;;;;;13.66;100.00;100307.19;6192437;23;20010;-89
2023/04/29 03:22:10;;;;;;;18.77;6.63;;;;;;;13.79;100.00;100302.00;6217132;23;20039;-90
2023/04/29 03:24:37;;;;;;;14.07;5.30;;;;;;;13.76;100.00;100313.03;6217384;23;20014;-89
2023/04/29 03:27:03;;;;;;;28.45;8.70;;;;;;;13.84;100.00;100323.59;6192088;23;20003;-89
2023/04/29 03:29:30;;;;;;;30.45;8.65;;;;;;;13.79;100.00;100315.34;6217539;23;20007;-90
2023/04/29 03:39:55;;;;;;;19.30;6.07;;;;;;;13.45;100.00;100299.16;6070273;23;20030;-89
2023/04/29 03:45:47;;;;;;;16.48;7.30;;;;;;;13.53;100.00;100291.06;6173931;23;20486;-90
2023/04/29 03:48:16;;;;;;;36.42;9.52;;;;;;;13.42;100.00;100294.22;6200287;23;20102;-90
2023/04/29 03:50:42;;;;;;;10.55;5.85;;;;;;;13.21;100.00;100283.50;6067565;23;20073;-90
2023/04/29 03:53:08;;;;;;;15.30;5.50;;;;;;;13.13;100.00;100288.91;6164762;23;20412;-88
2023/04/29 03:55:33;;;;;;;17.08;5.75;;;;;;;12.99;100.00;100303.00;6164770;23;20007;-87
2023/04/29 03:57:59;;;;;;;12.68;5.30;;;;;;;12.95;100.00;100308.69;6164855;23;20018;-87
2023/04/29 04:00:25;;;;;;;11.70;5.47;;;;;;;13.20;100.00;100305.78;6064611;23;20069;-85
2023/04/29 04:02:54;;;;;;;13.73;5.75;;;;;;;13.11;100.00;100304.22;6189218;23;20019;-84
2023/04/29 04:05:20;;;;;;;12.05;5.47;;;;;;;13.16;100.00;100309.81;6189586;23;20098;-84
2023/04/29 04:07:51;;;;;;;11.23;5.75;;;;;;;13.21;100.00;100308.28;6163671;23;20019;-84
2023/04/29 04:10:27;;;;;;;9.88;4.97;;;;;;;13.40;100.00;100313.03;6067180;23;20023;-84
2023/04/29 04:12:53;;;;;;;10.32;5.65;;;;;;;13.64;100.00;100325.19;6191631;23;20021;-84
2023/04/29 04:15:19;;;;;;;14.65;5.88;;;;;;;13.73;100.00;100334.72;6066846;23;20057;-88
2023/04/29 04:17:48;;;;;;;15.85;6.00;;;;;;;13.86;100.00;100334.88;6063514;23;20029;-84
2023/04/29 04:20:17;;;;;;;13.77;5.70;;;;;;;13.86;100.00;100342.88;6198108;23;20011;-85
2023/04/29 04:22:42;;;;;;;10.85;5.50;;;;;;;14.02;100.00;100336.47;6161834;23;20500;-87
2023/04/29 04:25:27;;;;;;;16.48;5.93;;;;;;;14.08;100.00;100340.25;6162054;23;20037;-85
2023/04/29 04:27:56;;;;;;;13.27;6.15;;;;;;;14.14;100.00;100339.50;6161923;23;20022;-84
2023/04/29 04:30:52;;;;;;;13.65;6.25;;;;;;;14.02;100.00;100338.34;6120088;23;20400;-89
2023/04/29 04:33:18;;;;;;;15.25;6.45;;;;;;;13.98;100.00;100338.72;6142361;23;20021;-87
2023/04/29 04:35:45;;;;;;;14.75;7.38;;;;;;;13.83;100.00;100345.09;6187347;23;20094;-85
2023/04/29 04:38:11;;;;;;;10.25;6.05;;;;;;;13.91;100.00;100332.50;6187759;23;20069;-85
2023/04/29 04:40:40;;;;;;;16.10;6.82;;;;;;;13.98;100.00;100333.41;6188060;23;20007;-86
2023/04/29 04:43:19;;;;;;;10.93;5.80;;;;;;;13.97;100.00;100331.75;6164643;23;20081;-89
2023/04/29 04:45:45;;;;;;;11.23;6.10;;;;;;;14.18;100.00;100328.28;6190195;23;20714;-88
2023/04/29 04:48:11;;;;;;;15.05;6.47;;;;;;;14.30;100.00;100332.06;6190713;23;20053;-90
2023/04/29 04:50:38;;;;;;;13.63;6.13;;;;;;;14.19;100.00;100331.72;6172852;23;20018;-92
2023/04/29 04:53:44;;;;;;;16.90;6.13;;;;;;;14.13;100.00;100329.84;6169736;23;20023;-90
2023/04/29 04:56:21;;;;;;;17.15;6.18;;;;;;;14.32;100.00;100334.53;6069023;23;20333;-91
2023/04/29 04:58:47;;;;;;;14.80;6.47;;;;;;;14.17;100.00;100337.28;6193432;23;20019;-91
2023/04/29 05:04:02;;;;;;;13.80;6.47;;;;;;;13.84;100.00;100320.94;5161658;27;20422;-87
2023/04/29 05:06:29;;;;;;;11.88;7.15;;;;;;;13.76;100.00;100333.53;5136702;28;20334;-88
2023/04/29 05:08:55;;;;;;;11.68;6.63;;;;;;;13.82;100.00;100338.13;5121085;28;20056;-92
2023/04/29 05:11:26;;;;;;;14.88;7.28;;;;;;;13.86;100.00;100324.22;5140955;27;20076;-90
2023/04/29 05:14:09;;;;;;;14.05;6.88;;;;;;;13.70;100.00;100324.44;5126262;28;20492;-88
2023/04/29 05:16:34;;;;;;;21.63;7.90;;;;;;;13.78;100.00;100334.19;5141750;28;20039;-88
2023/04/29 05:19:00;;;;;;;21.40;8.90;;;;;;;13.76;100.00;100346.84;5141537;28;20426;-91
2023/04/29 05:21:30;;;;;;;19.33;8.20;;;;;;;13.81;100.00;100337.31;5135407;28;20374;-88
2023/04/29 05:23:57;;;;;;;20.25;6.95;;;;;;;13.83;100.00;100329.94;5134305;28;20053;-86
2023/04/29 05:26:22;;;;;;;14.13;7.57;;;;;;;13.85;100.00;100325.22;5135832;28;20088;-88
2023/04/29 05:28:49;;;;;;;17.20;7.63;;;;;;;14.10;100.00;100335.53;5135550;28;20039;-87
2023/04/29 05:31:17;;;;;;;19.08;8.18;;;;;;;14.02;100.00;100327.69;5118389;28;20111;-86
2023/04/29 05:33:48;;;;;;;15.43;7.13;;;;;;;14.11;100.00;100323.88;5147033;28;20015;-89
2023/04/29 05:36:15;;;;;;;;;;;;;;;14.20;100.00;100334.22;5132539;28;20035;-84
2023/04/29 05:38:44;;;;;;;17.60;8.45;;;;;;;14.41;100.00;100333.44;5145753;28;19912;-87
2023/04/29 05:41:10;;;;;;;20.23;8.35;;;;;;;14.41;100.00;100336.09;5129014;28;20031;-88
2023/04/29 05:43:54;;;;;;;16.98;7.60;;;;;;;14.37;100.00;100333.00;5148449;28;20054;-89
2023/04/29 05:46:21;;;;;;;22.15;8.60;;;;;;;14.38;100.00;100352.47;5142984;28;20036;-88
2023/04/29 05:48:48;;;;;;;20.15;8.85;;;;;;;14.32;100.00;100361.19;5128914;28;20040;-88
2023/04/29 05:51:15;;;;;;;15.95;8.45;;;;;;;14.34;100.00;100364.53;5152714;27;20035;-89
2023/04/29 05:53:41;;;;;;;18.85;8.13;;;;;;;14.49;100.00;100362.63;5155041;27;20008;-90
2023/04/29 05:56:07;;;;;;;20.17;8.02;;;;;;;14.69;100.00;100352.13;5154398;27;20037;-88
2023/04/29 05:58:36;;;;;;;17.80;8.60;;;;;;;14.86;100.00;100354.31;5128004;22;20037;-88
2023/04/29 06:01:02;;;;;;;23.98;7.78;;;;;;;14.76;100.00;100372.50;5092638;28;20047;-90
2023/04/29 06:03:29;;;;;;;19.63;8.40;;;;;;;14.60;100.00;100359.44;5092994;28;20028;-90
2023/04/29 06:06:28;;;;;;;22.10;8.65;;;;;;;14.63;100.00;100359.06;5048420;28;20021;-88
2023/04/29 06:09:15;;;;;;;26.55;9.20;;;;;;;14.86;100.00;100354.31;5091038;28;20055;-86
2023/04/29 06:12:20;;;;;;;18.83;9.00;;;;;;;14.83;100.00;100332.53;5075869;28;20053;-89
2023/04/29 06:14:47;;;;;;;21.88;8.57;;;;;;;14.64;100.00;100304.72;5082192;28;20061;-87
2023/04/29 06:17:12;;;;;;;21.02;8.50;;;;;;;14.43;100.00;100305.56;5079761;28;20063;-88
2023/04/29 06:19:38;;;;;;;21.00;8.93;;;;;;;14.43;100.00;100321.56;5079480;28;20017;-86
2023/04/29 06:25:27;;;;;;;;;;;;;;;14.51;100.00;100346.44;5079973;28;20037;-87
2023/04/29 06:27:56;;;;;;;21.40;9.40;;;;;;;14.58;100.00;100348.16;5080175;28;19901;-88
2023/04/29 06:30:24;;;;;;;22.73;9.27;;;;;;;14.67;100.00;100360.34;5079387;28;20047;-86
2023/04/29 06:33:29;;;;;;;18.42;10.43;;;;;;;14.88;100.00;100373.63;5077308;28;20462;-86
2023/04/29 06:35:57;;;;;;;20.13;9.27;;;;;;;15.22;100.00;100380.03;5060694;28;20037;-88
2023/04/29 06:38:35;;;;;;;26.83;10.00;;;;;;;15.41;100.00;100374.81;5062171;28;20048;-88
2023/04/29 06:41:12;;;;;;;16.73;8.85;;;;;;;15.69;100.00;100366.78;5065793;28;20041;-87
2023/04/29 06:43:47;;;;;;;22.35;7.82;;;;;;;16.32;100.00;100362.03;5067159;28;20080;-87
2023/04/29 06:46:52;;;;;;;16.80;8.63;;;;;;;16.95;100.00;100368.69;5000645;28;20061;-86
2023/04/29 06:49:25;;;;;;;14.05;7.57;;;;;;;17.19;100.00;100385.97;4986384;28;20046;-90
2023/04/29 06:51:51;;;;;;;15.45;8.07;;;;;;;17.33;100.00;100382.25;5005448;28;20061;-88
2023/04/29 06:54:16;;;;;;;16.92;9.43;;;;;;;17.43;100.00;100393.34;5016657;28;20035;-89
2023/04/29 06:56:43;;;;;;;20.20;9.15;;;;;;;17.41;100.00;100406.13;5013879;28;20106;-88
2023/04/29 06:59:11;;;;;;;16.90;9.50;;;;;;;17.02;100.00;100407.81;4999299;28;20034;-86
2023/04/29 07:01:37;;;;;;;15.00;9.63;;;;;;;16.99;100.00;100400.22;5012454;28;20046;-90
2023/04/29 07:04:04;;;;;;;17.75;9.68;;;;;;;17.21;100.00;100403.47;5007665;28;20062;-89
2023/04/29 07:06:32;;;;;;;15.98;10.23;;;;;;;17.05;100.00;100412.75;5008855;28;20090;-88
2023/04/29 07:08:57;;;;;;;24.83;12.75;;;;;;;17.00;100.00;100412.53;5016078;28;20046;-89
2023/04/29 07:15:29;;;;;;;21.23;11.82;;;;;;;16.93;100.00;100418.94;5001292;28;20419;-87
2023/04/29 07:17:55;;;;;;;22.63;12.73;;;;;;;16.83;100.00;100427.38;5021635;28;20045;-88
2023/04/29 07:20:21;;;;;;;25.67;12.77;;;;;;;16.58;100.00;100426.31;5036299;28;20471;-87
2023/04/29 07:22:48;;;;;;;23.27;13.02;;;;;;;16.62;100.00;100432.09;5037164;28;20040;-87
2023/04/29 07:25:14;;;;;;;20.08;11.88;;;;;;;16.61;100.00;100430.41;5034934;28;20038;-89
2023/04/29 07:27:40;;;;;;;25.50;12.90;;;;;;;16.65;100.00;100426.31;5019037;28;20068;-87
2023/04/29 07:30:06;;;;;;;28.40;13.48;;;;;;;16.54;100.00;100419.69;5038545;28;20072;-86
2023/04/29 07:32:32;;;;;;;22.23;13.05;;;;;;;16.75;100.00;100426.75;5037317;28;20029;-88
2023/04/29 07:35:01;;;;;;;25.00;13.30;;;;;;;16.70;100.00;100435.41;5019697;28;20036;-88
2023/04/29 07:37:27;;;;;;;32.50;13.73;;;;;;;16.68;100.00;100426.75;5034721;28;20033;-86
2023/04/29 07:39:53;;;;;;;24.60;14.30;;;;;;;16.76;100.00;100423.88;5035145;28;20028;-85
2023/04/29 07:42:18;;;;;;;28.88;14.98;;;;;;;16.73;100.00;100418.09;5035016;28;20033;-85
2023/04/29 07:44:45;;;;;;;30.98;14.40;;;;;;;16.77;100.00;100425.50;5035923;28;20414;-89
2023/04/29 07:47:11;;;;;;;26.73;15.75;;;;;;;16.63;100.00;100423.88;5035375;28;20131;-86
2023/04/29 07:49:37;;;;;;;28.33;15.27;;;;;;;16.60;100.00;100428.78;5035386;28;20095;-85
2023/04/29 07:52:08;;;;;;;28.30;14.93;;;;;;;16.60;100.00;100434.97;5036155;28;20108;-85
2023/04/29 07:54:37;;;;;;;22.00;14.23;;;;;;;16.56;100.00;100433.72;5037417;28;20045;-89
2023/04/29 07:57:03;;;;;;;22.80;13.65;;;;;;;16.47;100.00;100435.72;5040063;28;20092;-88
2023/04/29 07:59:30;;;;;;;30.50;15.18;;;;;;;16.38;100.00;100436.94;5038758;28;20069;-88
2023/04/29 08:01:56;;;;;;;31.08;14.27;;;;;;;16.50;100.00;100437.19;5019935;28;20044;-86
2023/04/29 08:04:22;;;;;;;23.15;13.68;;;;;;;16.54;100.00;100435.72;5036376;28;20160;-88
2023/04/29 08:06:55;;;;;;;28.90;15.02;;;;;;;16.52;100.00;100438.63;5035874;28;20491;-88
2023/04/29 08:09:21;;;;;;;27.27;14.02;;;;;;;16.55;100.00;100440.09;5040438;28;20059;-90
2023/04/29 08:11:46;;;;;;;25.20;13.40;;;;;;;16.67;100.00;100433.09;5025316;28;20474;-90
2023/04/29 08:14:12;;;;;;;29.60;14.80;;;;;;;16.67;100.00;100433.09;5037317;28;20534;-88
2023/04/29 08:16:38;;;;;;;25.17;14.80;;;;;;;16.61;100.00;100430.41;5017716;28;20024;-90
2023/04/29 08:19:03;;;;;;;26.58;14.07;;;;;;;16.72;100.00;100433.34;5034418;28;20397;-87
2023/04/29 08:21:31;;;;;;;27.33;14.98;;;;;;;16.68;100.00;100433.94;5034954;28;20056;-89
2023/04/29 08:23:57;;;;;;;24.67;13.75;;;;;;;16.64;100.00;100430.84;5039058;28;20053;-91
2023/04/29 08:26:23;;;;;;;26.92;14.55;;;;;;;16.64;100.00;100430.84;5038715;28;20037;-89
2023/04/29 08:28:48;;;;;;;26.33;14.77;;;;;;;16.62;100.00;100432.09;5035526;28;20083;-87
2023/04/29 08:31:18;;;;;;;26.08;13.60;;;;;;;16.60;100.00;100424.28;5036230;28;20033;-85
2023/04/29 08:33:47;;;;;;;25.85;14.23;;;;;;;16.58;100.00;100422.81;5035435;28;20044;-86
2023/04/29 08:36:13;;;;;;;25.77;14.32;;;;;;;16.72;100.00;100422.63;5035345;28;20120;-88
2023/04/29 08:38:41;;;;;;;21.88;13.73;;;;;;;16.85;100.00;100422.66;5035544;28;20031;-91
2023/04/29 08:41:08;;;;;;;24.48;13.93;;;;;;;16.97;100.00;100418.31;5039482;28;20060;-90
2023/04/29 08:43:41;;;;;;;32.55;14.50;;;;;;;16.97;100.00;100414.81;5042828;28;20640;-89
2023/04/29 08:46:09;;;;;;;30.23;13.88;;;;;;;17.04;100.00;100416.47;5023884;28;20048;-89
2023/04/29 08:48:36;;;;;;;31.50;14.35;;;;;;;16.99;100.00;100424.31;5040165;28;20208;-88
2023/04/29 08:51:02;;;;;;;25.38;14.27;;;;;;;17.13;100.00;100422.44;5053793;28;20475;-88
2023/04/29 08:53:28;;;;;;;25.38;13.80;;;;;;;17.08;100.00;100422.22;5022565;28;20041;-87
2023/04/29 08:55:55;;;;;;;22.95;12.18;;;;;;;17.11;100.00;100427.16;5052730;28;20111;-85
2023/04/29 08:58:21;;;;;;;28.67;11.95;;;;;;;17.21;100.00;100426.75;5058755;28;20052;-90
2023/04/29 09:00:48;;;;;;;29.30;12.48;;;;;;;17.18;100.00;100424.50;5058195;28;20029;-88
2023/04/29 09:03:37;;;;;;;24.65;13.02;;;;;;;17.04;100.00;100416.47;5059075;28;20037;-87
2023/04/29 09:06:05;;;;;;;39.80;14.88;;;;;;;16.99;100.00;100413.59;5056552;28;20029;-89
2023/04/29 09:08:35;;;;;;;25.52;13.02;;;;;;;16.79;100.00;100407.41;5054451;28;20040;-86
2023/04/29 09:11:04;;;;;;;27.73;13.75;;;;;;;16.68;100.00;100407.19;5055429;28;20119;-86
2023/04/29 09:13:31;;;;;;;24.83;14.43;;;;;;;16.80;100.00;100398.34;5055599;28;20558;-88
2023/04/29 09:16:00;;;;;;;25.25;14.23;;;;;;;16.88;100.00;100390.09;5054986;28;20036;-86
2023/04/29 09:18:46;;;;;;;25.88;15.13;;;;;;;16.94;100.00;100389.28;5056223;28;20029;-88
2023/04/29 09:21:24;;;;;;;25.88;15.73;;;;;;;17.00;100.00;100393.81;5040305;28;20061;-88
2023/04/29 09:23:52;;;;;;;26.92;14.93;;;;;;;16.98;100.00;100393.19;5056078;28;20390;-87
2023/04/29 09:26:40;;;;;;;26.38;15.00;;;;;;;16.92;100.00;100391.34;5057027;28;20079;-89
2023/04/29 09:29:14;;;;;;;26.77;15.60;;;;;;;16.89;100.00;100391.75;5053589;28;20162;-86
2023/04/29 09:31:41;;;;;;;27.25;15.30;;;;;;;17.02;100.00;100391.75;5055232;28;20048;-86
2023/04/29 09:34:07;;;;;;;25.60;14.57;;;;;;;16.99;100.00;100397.53;5054906;28;20049;-87
2023/04/29 09:36:57;;;;;;;19.70;13.65;;;;;;;16.97;100.00;100390.72;5054961;28;20087;-89
2023/04/29 09:39:23;;;;;;;30.13;15.68;;;;;;;16.92;100.00;100391.34;5056533;28;20501;-88
2023/04/29 09:41:49;;;;;;;25.73;15.38;;;;;;;16.86;100.00;100380.63;5022729;28;20052;-86
2023/04/29 09:44:15;;;;;;;54.88;15.98;;;;;;;17.17;100.00;100380.00;5058336;28;20021;-90
2023/04/29 09:46:41;;;;;;;37.58;16.52;;;;;;;17.07;100.00;100384.97;5058623;28;20041;-88
2023/04/29 09:49:25;;;;;;;24.88;15.75;;;;;;;17.10;100.00;100381.88;5058881;28;20048;-89
2023/04/29 09:52:00;;;;;;;25.63;16.48;;;;;;;17.04;100.00;100387.00;5060814;28;20040;-86
2023/04/29 09:54:40;;;;;;;27.02;16.23;;;;;;;17.14;100.00;100389.25;5058637;28;20040;-89
2023/04/29 09:57:09;;;;;;;25.23;16.08;;;;;;;17.24;100.00;100397.69;5061005;28;20044;-86
2023/04/29 09:59:37;;;;;;;29.67;16.60;;;;;;;17.45;100.00;100392.09;5060886;28;20479;-87
2023/04/29 10:02:24;;;;;;;26.40;15.80;;;;;;;17.55;100.00;100402.38;5040888;28;20118;-87
2023/04/29 10:04:57;;;;;;;28.15;15.10;;;;;;;17.46;100.00;100390.25;5057434;28;20048;-87
2023/04/29 10:07:26;;;;;;;36.95;18.42;;;;;;;17.29;100.00;100391.72;5057193;28;20033;-88
2023/04/29 10:09:55;;;;;;;34.70;17.90;;;;;;;17.20;100.00;100388.41;5059587;28;20040;-88
2023/04/29 10:12:21;;;;;;;34.92;18.17;;;;;;;17.36;100.00;100389.88;5057392;28;20033;-89
2023/04/29 10:14:54;;;;;;;30.42;17.88;;;;;;;17.41;100.00;100382.00;5058354;28;20029;-86
2023/04/29 10:17:43;;;;;;;30.08;18.45;;;;;;;17.44;100.00;100386.94;5060789;28;20128;-84
2023/04/29 10:20:13;;;;;;;34.97;18.75;;;;;;;17.59;100.00;100360.78;5061645;28;20092;-88
2023/04/29 10:22:46;;;;;;;30.63;18.33;;;;;;;17.92;100.00;100361.47;5068783;28;20029;-90
2023/04/29 10:25:15;;;;;;;31.08;17.33;;;;;;;18.10;100.00;100362.63;5069630;28;20032;-87
2023/04/29 10:27:43;;;;;;;27.70;17.00;;;;;;;18.07;100.00;100361.16;5070457;28;20041;-86
2023/04/29 10:30:17;;;;;;;36.25;18.00;;;;;;;17.99;100.00;100367.63;5076247;28;20029;-87
2023/04/29 10:32:46;;;;;;;29.50;17.02;;;;;;;17.94;100.00;100369.28;5055214;28;20048;-86
2023/04/29 10:35:14;;;;;;;24.40;15.60;;;;;;;18.06;100.00;100363.00;5076320;28;20044;-87
2023/04/29 10:37:45;;;;;;;27.17;16.27;;;;;;;18.36;100.00;100365.13;5036393;28;20041;-88
2023/04/29 10:40:29;;;;;;;33.35;17.48;;;;;;;18.56;100.00;100369.34;5054458;28;20048;-88
2023/04/29 10:42:57;;;;;;;28.95;17.33;;;;;;;18.33;100.00;100369.06;5067677;28;20424;-90
2023/04/29 10:45:33;;;;;;;31.30;16.70;;;;;;;18.56;100.00;100384.63;5063022;28;20033;-90
2023/04/29 10:48:17;;;;;;;36.40;16.58;;;;;;;18.30;100.00;100379.38;5066908;28;20080;-91
2023/04/29 10:53:27;;;;;;;25.75;15.50;;;;;;;17.96;100.00;100373.38;4985117;26;20042;-87
2023/04/29 10:56:03;;;;;;;25.92;16.80;;;;;;;18.07;100.00;100369.22;5021912;28;20034;-87
2023/04/29 10:58:38;;;;;;;29.90;16.25;;;;;;;18.05;100.00;100358.72;5021069;28;20056;-88
2023/04/29 11:01:04;;;;;;;25.63;15.50;;;;;;;18.18;100.00;100354.31;5005526;28;20038;-88
2023/04/29 11:04:09;;;;;;;30.70;16.63;;;;;;;17.99;100.00;100351.53;5025583;28;20037;-86
2023/04/29 11:06:55;;;;;;;30.60;17.02;;;;;;;17.88;100.00;100346.81;4981908;28;20039;-85
2023/04/29 11:09:26;;;;;;;34.20;17.40;;;;;;;17.62;100.00;100349.63;4980492;28;20428;-88
2023/04/29 11:11:56;;;;;;;28.83;17.55;;;;;;;17.90;100.00;100349.28;4979051;28;20066;-84
2023/04/29 11:14:47;;;;;;;35.80;18.45;;;;;;;17.90;100.00;100341.22;4980143;28;20120;-87
2023/04/29 11:17:22;;;;;;;30.02;18.23;;;;;;;17.84;100.00;100336.72;4978788;28;20583;-88
2023/04/29 11:19:51;;;;;;;31.10;17.77;;;;;;;17.69;100.00;100337.03;4961877;28;20456;-89
2023/04/29 11:22:17;;;;;;;31.52;18.63;;;;;;;17.92;100.00;100340.00;4960886;28;20181;-90
2023/04/29 11:24:53;;;;;;;25.02;17.25;;;;;;;18.21;100.00;100337.78;4960483;28;20125;-88
2023/04/29 11:27:21;;;;;;;25.90;17.40;;;;;;;18.01;100.00;100340.56;4963043;28;20047;-88
2023/04/29 11:29:50;;;;;;;30.48;18.85;;;;;;;18.13;100.00;100335.34;4976477;28;20043;-88
2023/04/29 11:32:24;;;;;;;24.58;17.35;;;;;;;18.20;100.00;100326.22;4962711;28;20054;-89
2023/04/29 11:34:52;;;;;;;28.45;17.75;;;;;;;18.34;100.00;100314.34;4980908;28;20050;-89
2023/04/29 11:37:19;;;;;;;29.13;17.70;;;;;;;18.34;100.00;100326.94;5000465;28;20042;-88
2023/04/29 11:39:45;;;;;;;26.60;17.73;;;;;;;18.13;100.00;100320.06;5022311;28;20037;-89
2023/04/29 11:42:11;;;;;;;36.17;18.50;;;;;;;18.19;100.00;100323.75;5020055;28;20474;-86
2023/04/29 11:44:36;;;;;;;24.52;17.77;;;;;;;18.41;100.00;100314.31;5022224;28;20499;-90
2023/04/29 11:47:06;;;;;;;27.58;19.15;;;;;;;18.39;100.00;100314.53;5022518;28;20026;-92
2023/04/29 11:49:33;;;;;;;33.78;20.80;;;;;;;18.39;100.00;100309.19;5025168;28;20427;-89
2023/04/29 11:52:04;;;;;;;28.92;20.02;;;;;;;18.65;100.00;100329.66;5016399;28;20050;-88
2023/04/29 11:54:30;;;;;;;28.08;18.20;;;;;;;18.40;100.00;100326.91;5014614;28;20038;-89